sensor_id;sensor_type;location;lat;lon;timestamp;pressure;altitude;pressure_sealevel;temperature;humidity
73383;BME280;61600;48.126;11.542;2023-05-17T00:02:20;95721.84;;;12.13;57.17
73383;BME280;61600;48.126;11.542;2023-05-17T00:04:46;95724.47;;;11.99;57.00
73383;BME280;61600;48.126;11.542;2023-05-17T00:07:11;95723.38;;;12.19;57.18
73383;BME280;61600;48.126;11.542;2023-05-17T00:09:37;95728.44;;;12.07;57.11
73383;BME280;61600;48.126;11.542;2023-05-17T00:12:03;95723.09;;;11.78;57.15
73383;BME280;61600;48.126;11.542;2023-05-17T00:14:29;95729.09;;;11.75;57.10
73383;BME280;61600;48.126;11.542;2023-05-17T00:16:58;95729.06;;;11.80;57.20
73383;BME280;61600;48.126;11.542;2023-05-17T00:19:24;95738.06;;;11.81;57.64
73383;BME280;61600;48.126;11.542;2023-05-17T00:21:49;95737.16;;;12.09;57.48
73383;BME280;61600;48.126;11.542;2023-05-17T00:24:15;95746.19;;;12.05;57.27
73383;BME280;61600;48.126;11.542;2023-05-17T00:26:41;95744.44;;;11.95;57.09
73383;BME280;61600;48.126;11.542;2023-05-17T00:29:07;95753.56;;;12.04;57.10
73383;BME280;61600;48.126;11.542;2023-05-17T00:31:32;95753.78;;;11.89;57.80
73383;BME280;61600;48.126;11.542;2023-05-17T00:33:58;95746.59;;;11.93;57.07
73383;BME280;61600;48.126;11.542;2023-05-17T00:36:24;95752.00;;;11.98;57.40
73383;BME280;61600;48.126;11.542;2023-05-17T00:38:50;95750.41;;;11.73;57.26
73383;BME280;61600;48.126;11.542;2023-05-17T00:41:15;95749.47;;;11.83;57.49
73383;BME280;61600;48.126;11.542;2023-05-17T00:43:42;95753.88;;;11.79;57.46
73383;BME280;61600;48.126;11.542;2023-05-17T00:46:08;95753.47;;;11.62;57.33
73383;BME280;61600;48.126;11.542;2023-05-17T00:48:34;95755.34;;;11.42;56.83
73383;BME280;61600;48.126;11.542;2023-05-17T00:51:00;95754.22;;;11.43;57.05
73383;BME280;61600;48.126;11.542;2023-05-17T00:53:26;95755.38;;;11.37;57.66
73383;BME280;61600;48.126;11.542;2023-05-17T00:55:53;95750.75;;;11.62;57.20
73383;BME280;61600;48.126;11.542;2023-05-17T00:58:20;95758.69;;;11.58;57.37
73383;BME280;61600;48.126;11.542;2023-05-17T01:00:47;95742.59;;;11.62;57.40
73383;BME280;61600;48.126;11.542;2023-05-17T01:03:13;95751.88;;;11.61;57.15
73383;BME280;61600;48.126;11.542;2023-05-17T01:05:39;95751.56;;;11.62;57.26
73383;BME280;61600;48.126;11.542;2023-05-17T01:08:05;95761.03;;;11.12;58.16
73383;BME280;61600;48.126;11.542;2023-05-17T01:10:46;95758.28;;;11.17;58.26
73383;BME280;61600;48.126;11.542;2023-05-17T01:13:21;95772.88;;;11.31;58.11
73383;BME280;61600;48.126;11.542;2023-05-17T01:18:42;95760.75;;;11.19;58.07
73383;BME280;61600;48.126;11.542;2023-05-17T01:26:46;95755.41;;;11.03;58.20
73383;BME280;61600;48.126;11.542;2023-05-17T01:29:15;95762.41;;;11.15;58.08
73383;BME280;61600;48.126;11.542;2023-05-17T01:31:41;95777.78;;;10.95;58.81
73383;BME280;61600;48.126;11.542;2023-05-17T01:34:08;95766.22;;;11.14;57.99
73383;BME280;61600;48.126;11.542;2023-05-17T01:36:34;95781.00;;;11.36;58.15
73383;BME280;61600;48.126;11.542;2023-05-17T01:39:00;95784.41;;;11.47;57.84
73383;BME280;61600;48.126;11.542;2023-05-17T01:41:32;95787.38;;;11.50;57.99
73383;BME280;61600;48.126;11.542;2023-05-17T01:46:42;95791.78;;;11.18;59.04
73383;BME280;61600;48.126;11.542;2023-05-17T01:49:15;95778.00;;;11.04;59.98
73383;BME280;61600;48.126;11.542;2023-05-17T01:54:37;95790.72;;;11.14;59.94
73383;BME280;61600;48.126;11.542;2023-05-17T01:57:05;95790.34;;;11.25;59.85
73383;BME280;61600;48.126;11.542;2023-05-17T01:59:33;95791.72;;;11.23;59.62
73383;BME280;61600;48.126;11.542;2023-05-17T02:02:02;95786.50;;;10.97;60.84
73383;BME280;61600;48.126;11.542;2023-05-17T02:04:34;95789.97;;;11.08;60.46
73383;BME280;61600;48.126;11.542;2023-05-17T02:07:01;95788.66;;;11.00;61.06
73383;BME280;61600;48.126;11.542;2023-05-17T02:09:27;95790.50;;;11.05;60.59
73383;BME280;61600;48.126;11.542;2023-05-17T02:11:53;95788.59;;;10.72;61.64
73383;BME280;61600;48.126;11.542;2023-05-17T02:14:19;95796.00;;;11.00;61.24
73383;BME280;61600;48.126;11.542;2023-05-17T02:16:45;95789.72;;;11.05;61.27
73383;BME280;61600;48.126;11.542;2023-05-17T02:19:11;95790.25;;;11.01;60.84
73383;BME280;61600;48.126;11.542;2023-05-17T02:21:37;95798.75;;;10.95;61.21
73383;BME280;61600;48.126;11.542;2023-05-17T02:24:04;95789.81;;;10.89;61.88
73383;BME280;61600;48.126;11.542;2023-05-17T02:26:30;95799.13;;;10.83;61.86
73383;BME280;61600;48.126;11.542;2023-05-17T02:28:57;95799.88;;;10.89;61.80
73383;BME280;61600;48.126;11.542;2023-05-17T02:31:23;95795.47;;;10.98;61.56
73383;BME280;61600;48.126;11.542;2023-05-17T02:33:54;95795.69;;;10.68;62.06
73383;BME280;61600;48.126;11.542;2023-05-17T02:36:20;95799.22;;;10.68;62.09
73383;BME280;61600;48.126;11.542;2023-05-17T02:38:46;95792.38;;;10.76;61.91
73383;BME280;61600;48.126;11.542;2023-05-17T02:41:12;95797.50;;;10.77;61.36
73383;BME280;61600;48.126;11.542;2023-05-17T02:43:38;95791.25;;;10.77;61.57
73383;BME280;61600;48.126;11.542;2023-05-17T02:46:04;95802.38;;;10.80;60.88
73383;BME280;61600;48.126;11.542;2023-05-17T02:48:29;95806.47;;;10.83;60.79
73383;BME280;61600;48.126;11.542;2023-05-17T02:50:55;95801.38;;;10.66;61.27
73383;BME280;61600;48.126;11.542;2023-05-17T02:53:21;95811.38;;;10.81;60.68
73383;BME280;61600;48.126;11.542;2023-05-17T02:55:46;95811.94;;;10.78;60.44
73383;BME280;61600;48.126;11.542;2023-05-17T02:58:12;95805.81;;;10.57;60.26
73383;BME280;61600;48.126;11.542;2023-05-17T03:00:44;95805.47;;;10.69;60.05
73383;BME280;61600;48.126;11.542;2023-05-17T03:03:10;95817.34;;;10.83;60.36
73383;BME280;61600;48.126;11.542;2023-05-17T03:05:36;95816.25;;;10.84;59.88
73383;BME280;61600;48.126;11.542;2023-05-17T03:08:02;95828.31;;;10.73;59.86
73383;BME280;61600;48.126;11.542;2023-05-17T03:10:27;95821.50;;;10.70;59.40
73383;BME280;61600;48.126;11.542;2023-05-17T03:12:53;95829.84;;;10.84;58.78
73383;BME280;61600;48.126;11.542;2023-05-17T03:15:19;95832.06;;;10.77;58.67
73383;BME280;61600;48.126;11.542;2023-05-17T03:17:45;95838.13;;;10.69;58.93
73383;BME280;61600;48.126;11.542;2023-05-17T03:20:10;95826.88;;;10.80;58.96
73383;BME280;61600;48.126;11.542;2023-05-17T03:22:36;95842.94;;;10.77;59.47
73383;BME280;61600;48.126;11.542;2023-05-17T03:25:02;95843.84;;;10.67;58.58
73383;BME280;61600;48.126;11.542;2023-05-17T03:27:29;95852.50;;;10.74;58.32
73383;BME280;61600;48.126;11.542;2023-05-17T03:29:55;95858.22;;;10.73;58.14
73383;BME280;61600;48.126;11.542;2023-05-17T03:32:21;95852.66;;;10.93;58.20
73383;BME280;61600;48.126;11.542;2023-05-17T03:34:47;95855.69;;;10.86;57.55
73383;BME280;61600;48.126;11.542;2023-05-17T03:37:13;95856.59;;;10.72;57.60
73383;BME280;61600;48.126;11.542;2023-05-17T03:39:38;95859.50;;;10.90;57.43
73383;BME280;61600;48.126;11.542;2023-05-17T03:42:05;95856.03;;;10.70;57.71
73383;BME280;61600;48.126;11.542;2023-05-17T03:44:30;95872.34;;;10.75;57.30
73383;BME280;61600;48.126;11.542;2023-05-17T03:46:56;95866.34;;;10.83;57.20
73383;BME280;61600;48.126;11.542;2023-05-17T03:49:22;95872.66;;;10.68;57.34
73383;BME280;61600;48.126;11.542;2023-05-17T03:51:48;95879.13;;;10.82;56.96
73383;BME280;61600;48.126;11.542;2023-05-17T03:54:13;95880.97;;;10.92;56.59
73383;BME280;61600;48.126;11.542;2023-05-17T03:56:39;95876.53;;;10.57;57.14
73383;BME280;61600;48.126;11.542;2023-05-17T03:59:05;95883.56;;;10.63;56.73
73383;BME280;61600;48.126;11.542;2023-05-17T04:01:31;95887.53;;;10.22;57.34
73383;BME280;61600;48.126;11.542;2023-05-17T04:03:57;95903.06;;;10.16;57.61
73383;BME280;61600;48.126;11.542;2023-05-17T04:06:25;95895.19;;;10.20;57.57
73383;BME280;61600;48.126;11.542;2023-05-17T04:08:51;95908.59;;;10.60;56.98
73383;BME280;61600;48.126;11.542;2023-05-17T04:11:19;95902.69;;;10.48;56.61
73383;BME280;61600;48.126;11.542;2023-05-17T04:13:48;95903.16;;;10.60;57.13
73383;BME280;61600;48.126;11.542;2023-05-17T04:16:14;95912.66;;;10.73;56.51
73383;BME280;61600;48.126;11.542;2023-05-17T04:18:40;95914.81;;;10.76;56.26
73383;BME280;61600;48.126;11.542;2023-05-17T04:21:05;95924.63;;;10.67;56.39
73383;BME280;61600;48.126;11.542;2023-05-17T04:23:32;95919.69;;;10.79;56.22
73383;BME280;61600;48.126;11.542;2023-05-17T04:25:58;95920.88;;;10.58;56.23
73383;BME280;61600;48.126;11.542;2023-05-17T04:28:24;95918.94;;;10.63;55.98
73383;BME280;61600;48.126;11.542;2023-05-17T04:30:50;95923.28;;;10.69;55.94
73383;BME280;61600;48.126;11.542;2023-05-17T04:33:17;95930.06;;;10.72;56.01
73383;BME280;61600;48.126;11.542;2023-05-17T04:35:43;95930.78;;;10.87;55.53
73383;BME280;61600;48.126;11.542;2023-05-17T04:38:09;95930.19;;;10.95;55.51
73383;BME280;61600;48.126;11.542;2023-05-17T04:40:35;95945.50;;;10.86;55.22
73383;BME280;61600;48.126;11.542;2023-05-17T04:43:01;95941.91;;;10.96;55.38
73383;BME280;61600;48.126;11.542;2023-05-17T04:45:29;95939.59;;;10.69;55.74
73383;BME280;61600;48.126;11.542;2023-05-17T04:47:55;95948.22;;;10.81;55.40
73383;BME280;61600;48.126;11.542;2023-05-17T04:50:21;95950.06;;;10.96;55.15
73383;BME280;61600;48.126;11.542;2023-05-17T04:52:47;95955.75;;;11.05;55.38
73383;BME280;61600;48.126;11.542;2023-05-17T04:55:13;95955.69;;;11.15;55.50
73383;BME280;61600;48.126;11.542;2023-05-17T04:57:38;95962.78;;;11.11;55.17
73383;BME280;61600;48.126;11.542;2023-05-17T05:00:05;95956.19;;;10.68;55.83
73383;BME280;61600;48.126;11.542;2023-05-17T05:02:40;95957.25;;;10.72;54.87
73383;BME280;61600;48.126;11.542;2023-05-17T05:05:07;95951.66;;;11.02;55.17
73383;BME280;61600;48.126;11.542;2023-05-17T05:07:37;95959.91;;;10.87;54.61
73383;BME280;61600;48.126;11.542;2023-05-17T05:10:05;95960.06;;;11.11;54.64
73383;BME280;61600;48.126;11.542;2023-05-17T05:12:30;95970.19;;;11.00;54.72
73383;BME280;61600;48.126;11.542;2023-05-17T05:14:56;95965.81;;;11.04;55.04
73383;BME280;61600;48.126;11.542;2023-05-17T05:17:22;95962.34;;;10.88;54.64
73383;BME280;61600;48.126;11.542;2023-05-17T05:19:48;95970.66;;;11.17;54.24
73383;BME280;61600;48.126;11.542;2023-05-17T05:22:14;95974.94;;;11.28;54.27
73383;BME280;61600;48.126;11.542;2023-05-17T05:24:40;95967.53;;;10.90;53.93
73383;BME280;61600;48.126;11.542;2023-05-17T05:27:06;95973.94;;;11.09;54.05
73383;BME280;61600;48.126;11.542;2023-05-17T05:29:35;95972.03;;;11.10;53.97
73383;BME280;61600;48.126;11.542;2023-05-17T05:32:00;95976.72;;;11.04;54.33
73383;BME280;61600;48.126;11.542;2023-05-17T05:34:27;95978.44;;;11.34;53.23
73383;BME280;61600;48.126;11.542;2023-05-17T05:36:54;95972.47;;;11.32;53.28
73383;BME280;61600;48.126;11.542;2023-05-17T05:39:19;95982.56;;;11.26;53.04
73383;BME280;61600;48.126;11.542;2023-05-17T05:41:45;95976.34;;;11.16;53.41
73383;BME280;61600;48.126;11.542;2023-05-17T05:44:12;95980.00;;;11.01;54.47
73383;BME280;61600;48.126;11.542;2023-05-17T05:46:37;95979.69;;;11.02;54.18
73383;BME280;61600;48.126;11.542;2023-05-17T05:49:07;95976.66;;;11.14;54.28
73383;BME280;61600;48.126;11.542;2023-05-17T05:51:32;95976.41;;;11.11;54.03
73383;BME280;61600;48.126;11.542;2023-05-17T05:53:59;95980.09;;;11.30;53.71
73383;BME280;61600;48.126;11.542;2023-05-17T05:56:25;95976.50;;;11.39;53.27
73383;BME280;61600;48.126;11.542;2023-05-17T05:58:54;95979.56;;;11.28;53.02
73383;BME280;61600;48.126;11.542;2023-05-17T06:01:19;95981.53;;;11.22;52.83
73383;BME280;61600;48.126;11.542;2023-05-17T06:03:48;95985.78;;;11.38;52.63
73383;BME280;61600;48.126;11.542;2023-05-17T06:06:14;95990.34;;;11.48;52.84
73383;BME280;61600;48.126;11.542;2023-05-17T06:08:42;95993.25;;;11.13;53.48
73383;BME280;61600;48.126;11.542;2023-05-17T06:11:10;95996.03;;;11.02;54.02
73383;BME280;61600;48.126;11.542;2023-05-17T06:13:39;95998.91;;;11.26;53.61
73383;BME280;61600;48.126;11.542;2023-05-17T06:16:05;95997.06;;;11.61;53.56
73383;BME280;61600;48.126;11.542;2023-05-17T06:18:32;95999.59;;;11.47;53.24
73383;BME280;61600;48.126;11.542;2023-05-17T06:20:57;96000.91;;;11.54;53.07
73383;BME280;61600;48.126;11.542;2023-05-17T06:23:23;96005.88;;;10.93;53.68
73383;BME280;61600;48.126;11.542;2023-05-17T06:25:50;96004.66;;;11.25;54.32
73383;BME280;61600;48.126;11.542;2023-05-17T06:28:17;96003.94;;;11.53;53.25
73383;BME280;61600;48.126;11.542;2023-05-17T06:30:43;96010.53;;;11.42;53.17
73383;BME280;61600;48.126;11.542;2023-05-17T06:33:09;96010.34;;;11.28;53.34
73383;BME280;61600;48.126;11.542;2023-05-17T06:35:35;96002.75;;;11.20;52.97
73383;BME280;61600;48.126;11.542;2023-05-17T06:38:01;96008.38;;;11.39;53.60
73383;BME280;61600;48.126;11.542;2023-05-17T06:40:26;96017.56;;;11.48;53.10
73383;BME280;61600;48.126;11.542;2023-05-17T06:42:52;96017.44;;;11.73;53.30
73383;BME280;61600;48.126;11.542;2023-05-17T06:45:18;96011.69;;;11.80;52.54
73383;BME280;61600;48.126;11.542;2023-05-17T06:47:44;96022.16;;;11.96;52.45
73383;BME280;61600;48.126;11.542;2023-05-17T06:50:10;96024.66;;;11.93;51.29
73383;BME280;61600;48.126;11.542;2023-05-17T06:52:36;96012.75;;;11.79;51.87
73383;BME280;61600;48.126;11.542;2023-05-17T06:55:02;96014.47;;;12.03;51.93
73383;BME280;61600;48.126;11.542;2023-05-17T06:57:27;96017.69;;;12.11;51.49
73383;BME280;61600;48.126;11.542;2023-05-17T06:59:53;96025.69;;;12.02;51.57
73383;BME280;61600;48.126;11.542;2023-05-17T07:02:19;96025.13;;;12.05;50.87
73383;BME280;61600;48.126;11.542;2023-05-17T07:04:45;96027.19;;;12.18;50.57
73383;BME280;61600;48.126;11.542;2023-05-17T07:07:12;96029.50;;;12.01;52.54
73383;BME280;61600;48.126;11.542;2023-05-17T07:09:38;96033.28;;;12.05;51.67
73383;BME280;61600;48.126;11.542;2023-05-17T07:12:04;96037.25;;;11.89;51.85
73383;BME280;61600;48.126;11.542;2023-05-17T07:14:31;96040.50;;;11.91;51.40
73383;BME280;61600;48.126;11.542;2023-05-17T07:16:57;96040.72;;;11.94;51.19
73383;BME280;61600;48.126;11.542;2023-05-17T07:19:22;96031.09;;;12.07;51.38
73383;BME280;61600;48.126;11.542;2023-05-17T07:21:51;96039.38;;;12.26;50.90
73383;BME280;61600;48.126;11.542;2023-05-17T07:24:20;96038.16;;;12.13;50.87
73383;BME280;61600;48.126;11.542;2023-05-17T07:26:45;96039.34;;;12.31;51.44
73383;BME280;61600;48.126;11.542;2023-05-17T07:29:11;96030.59;;;12.34;50.57
73383;BME280;61600;48.126;11.542;2023-05-17T07:31:37;96038.72;;;12.10;50.61
73383;BME280;61600;48.126;11.542;2023-05-17T07:34:03;96044.78;;;12.60;50.30
73383;BME280;61600;48.126;11.542;2023-05-17T07:36:29;96046.41;;;12.32;51.11
73383;BME280;61600;48.126;11.542;2023-05-17T07:38:56;96045.84;;;12.64;50.86
73383;BME280;61600;48.126;11.542;2023-05-17T07:41:22;96036.22;;;12.95;49.83
73383;BME280;61600;48.126;11.542;2023-05-17T07:43:48;96045.19;;;13.00;49.87
73383;BME280;61600;48.126;11.542;2023-05-17T07:46:15;96042.44;;;13.29;48.79
73383;BME280;61600;48.126;11.542;2023-05-17T07:48:41;96036.28;;;13.37;48.41
73383;BME280;61600;48.126;11.542;2023-05-17T07:51:07;96043.69;;;13.37;46.61
73383;BME280;61600;48.126;11.542;2023-05-17T07:53:32;96041.59;;;13.05;48.10
73383;BME280;61600;48.126;11.542;2023-05-17T07:55:58;96037.19;;;13.51;46.80
73383;BME280;61600;48.126;11.542;2023-05-17T07:58:24;96051.13;;;13.74;46.25
73383;BME280;61600;48.126;11.542;2023-05-17T08:00:50;96044.59;;;13.70;46.50
73383;BME280;61600;48.126;11.542;2023-05-17T08:03:16;96052.81;;;13.88;46.46
73383;BME280;61600;48.126;11.542;2023-05-17T08:05:42;96042.09;;;14.11;46.40
73383;BME280;61600;48.126;11.542;2023-05-17T08:08:07;96042.44;;;14.04;45.50
73383;BME280;61600;48.126;11.542;2023-05-17T08:10:33;96049.63;;;13.63;45.47
73383;BME280;61600;48.126;11.542;2023-05-17T08:13:00;96048.06;;;13.94;46.19
73383;BME280;61600;48.126;11.542;2023-05-17T08:15:26;96041.81;;;13.75;45.86
73383;BME280;61600;48.126;11.542;2023-05-17T08:17:52;96050.75;;;13.80;45.94
73383;BME280;61600;48.126;11.542;2023-05-17T08:20:18;96044.25;;;13.58;46.59
73383;BME280;61600;48.126;11.542;2023-05-17T08:22:44;96057.38;;;13.37;47.03
73383;BME280;61600;48.126;11.542;2023-05-17T08:25:11;96058.25;;;13.03;47.94
73383;BME280;61600;48.126;11.542;2023-05-17T08:27:37;96051.31;;;13.16;47.75
73383;BME280;61600;48.126;11.542;2023-05-17T08:30:03;96058.06;;;12.95;48.40
73383;BME280;61600;48.126;11.542;2023-05-17T08:32:29;96050.03;;;13.32;47.96
73383;BME280;61600;48.126;11.542;2023-05-17T08:34:55;96060.38;;;13.35;47.21
73383;BME280;61600;48.126;11.542;2023-05-17T08:37:22;96069.78;;;13.24;47.93
73383;BME280;61600;48.126;11.542;2023-05-17T08:39:48;96067.16;;;13.38;47.92
73383;BME280;61600;48.126;11.542;2023-05-17T08:42:22;96069.41;;;13.07;48.23
73383;BME280;61600;48.126;11.542;2023-05-17T08:44:50;96059.81;;;13.15;48.44
73383;BME280;61600;48.126;11.542;2023-05-17T08:47:19;96072.13;;;13.36;46.91
73383;BME280;61600;48.126;11.542;2023-05-17T08:49:55;96063.94;;;13.55;47.10
73383;BME280;61600;48.126;11.542;2023-05-17T08:52:30;96062.13;;;13.26;46.61
73383;BME280;61600;48.126;11.542;2023-05-17T08:54:57;96068.66;;;13.49;47.08
73383;BME280;61600;48.126;11.542;2023-05-17T08:57:27;96070.66;;;13.20;47.00
73383;BME280;61600;48.126;11.542;2023-05-17T08:59:53;96070.22;;;13.55;47.21
73383;BME280;61600;48.126;11.542;2023-05-17T09:02:20;96076.69;;;13.64;46.44
73383;BME280;61600;48.126;11.542;2023-05-17T09:04:48;96084.06;;;14.20;45.65
73383;BME280;61600;48.126;11.542;2023-05-17T09:07:23;96072.69;;;14.31;44.59
73383;BME280;61600;48.126;11.542;2023-05-17T09:09:52;96073.69;;;14.54;45.42
73383;BME280;61600;48.126;11.542;2023-05-17T09:12:21;96078.28;;;14.59;44.10
73383;BME280;61600;48.126;11.542;2023-05-17T09:14:47;96079.03;;;14.45;44.15
73383;BME280;61600;48.126;11.542;2023-05-17T09:17:16;96081.50;;;14.61;43.57
73383;BME280;61600;48.126;11.542;2023-05-17T09:19:43;96082.38;;;14.42;44.24
73383;BME280;61600;48.126;11.542;2023-05-17T09:22:14;96086.72;;;14.43;43.50
73383;BME280;61600;48.126;11.542;2023-05-17T09:24:42;96086.97;;;14.61;43.57
73383;BME280;61600;48.126;11.542;2023-05-17T09:27:08;96084.13;;;14.33;44.19
73383;BME280;61600;48.126;11.542;2023-05-17T09:29:34;96081.69;;;14.50;43.87
73383;BME280;61600;48.126;11.542;2023-05-17T09:32:13;96088.13;;;14.60;43.32
73383;BME280;61600;48.126;11.542;2023-05-17T09:34:40;96079.47;;;14.53;43.17
73383;BME280;61600;48.126;11.542;2023-05-17T09:37:11;96096.28;;;14.46;43.71
73383;BME280;61600;48.126;11.542;2023-05-17T09:39:39;96083.50;;;14.41;44.11
73383;BME280;61600;48.126;11.542;2023-05-17T09:42:05;96093.31;;;14.24;43.55
73383;BME280;61600;48.126;11.542;2023-05-17T09:44:31;96086.03;;;14.33;43.56
73383;BME280;61600;48.126;11.542;2023-05-17T09:46:57;96082.31;;;14.61;42.10
73383;BME280;61600;48.126;11.542;2023-05-17T09:49:26;96076.19;;;14.83;41.89
73383;BME280;61600;48.126;11.542;2023-05-17T09:51:55;96074.31;;;15.11;40.86
73383;BME280;61600;48.126;11.542;2023-05-17T09:54:21;96071.47;;;15.29;42.16
73383;BME280;61600;48.126;11.542;2023-05-17T09:56:56;96073.72;;;15.41;42.27
73383;BME280;61600;48.126;11.542;2023-05-17T09:59:25;96080.63;;;15.52;41.73
73383;BME280;61600;48.126;11.542;2023-05-17T10:01:53;96073.50;;;15.24;41.74
73383;BME280;61600;48.126;11.542;2023-05-17T10:04:20;96075.72;;;15.08;40.70
73383;BME280;61600;48.126;11.542;2023-05-17T10:06:52;96073.81;;;15.09;41.95
73383;BME280;61600;48.126;11.542;2023-05-17T10:09:21;96071.47;;;15.43;42.12
73383;BME280;61600;48.126;11.542;2023-05-17T10:11:50;96073.69;;;15.27;42.34
73383;BME280;61600;48.126;11.542;2023-05-17T10:16:48;96078.47;;;15.08;42.62
73383;BME280;61600;48.126;11.542;2023-05-17T10:19:14;96077.38;;;15.23;42.89
73383;BME280;61600;48.126;11.542;2023-05-17T10:21:43;96079.56;;;15.07;42.51
73383;BME280;61600;48.126;11.542;2023-05-17T10:24:10;96075.06;;;14.70;43.44
73383;BME280;61600;48.126;11.542;2023-05-17T10:26:36;96073.06;;;14.89;42.65
73383;BME280;61600;48.126;11.542;2023-05-17T10:29:04;96068.63;;;15.07;41.58
73383;BME280;61600;48.126;11.542;2023-05-17T10:31:32;96070.16;;;15.68;41.52
73383;BME280;61600;48.126;11.542;2023-05-17T10:34:00;96071.34;;;15.89;40.75
73383;BME280;61600;48.126;11.542;2023-05-17T10:36:27;96056.91;;;16.19;40.04
73383;BME280;61600;48.126;11.542;2023-05-17T10:38:53;96067.19;;;15.78;40.11
73383;BME280;61600;48.126;11.542;2023-05-17T10:41:26;96062.50;;;16.28;39.82
73383;BME280;61600;48.126;11.542;2023-05-17T10:43:53;96051.25;;;16.38;40.00
73383;BME280;61600;48.126;11.542;2023-05-17T10:46:22;96060.19;;;16.88;37.76
73383;BME280;61600;48.126;11.542;2023-05-17T10:48:52;96059.50;;;16.82;37.46
73383;BME280;61600;48.126;11.542;2023-05-17T10:51:32;96065.13;;;15.97;39.24
73383;BME280;61600;48.126;11.542;2023-05-17T10:56:29;96061.00;;;16.22;38.83
73383;BME280;61600;48.126;11.542;2023-05-17T11:02:05;96057.28;;;16.26;37.53
73383;BME280;61600;48.126;11.542;2023-05-17T11:04:38;96057.53;;;16.16;36.76
73383;BME280;61600;48.126;11.542;2023-05-17T11:12:34;96047.34;;;15.94;37.71
73383;BME280;61600;48.126;11.542;2023-05-17T11:15:05;96047.97;;;15.91;36.86
73383;BME280;61600;48.126;11.542;2023-05-17T11:22:41;96038.47;;;16.33;34.64
73383;BME280;61600;48.126;11.542;2023-05-17T11:25:12;96028.31;;;16.87;35.58
73383;BME280;61600;48.126;11.542;2023-05-17T11:27:47;96032.19;;;17.17;39.91
73383;BME280;61600;48.126;11.542;2023-05-17T11:30:27;96026.88;;;17.20;36.39
73383;BME280;61600;48.126;11.542;2023-05-17T11:32:58;96036.41;;;17.71;37.74
73383;BME280;61600;48.126;11.542;2023-05-17T11:35:35;96030.75;;;17.28;34.60
73383;BME280;61600;48.126;11.542;2023-05-17T11:38:17;96040.25;;;16.82;35.82
73383;BME280;61600;48.126;11.542;2023-05-17T11:40:48;96038.22;;;16.96;36.97
73383;BME280;61600;48.126;11.542;2023-05-17T11:43:19;96045.00;;;16.90;36.79
73383;BME280;61600;48.126;11.542;2023-05-17T11:45:49;96036.47;;;16.70;36.67
73383;BME280;61600;48.126;11.542;2023-05-17T11:48:17;96039.91;;;16.53;37.18
73383;BME280;61600;48.126;11.542;2023-05-17T11:50:45;96046.53;;;17.14;36.83
73383;BME280;61600;48.126;11.542;2023-05-17T11:53:12;96039.19;;;17.31;36.58
73383;BME280;61600;48.126;11.542;2023-05-17T11:55:39;96035.66;;;18.05;34.74
73383;BME280;61600;48.126;11.542;2023-05-17T11:58:07;96045.22;;;18.59;33.36
73383;BME280;61600;48.126;11.542;2023-05-17T12:00:34;96033.50;;;18.87;32.70
73383;BME280;61600;48.126;11.542;2023-05-17T12:03:20;96033.84;;;18.69;33.88
73383;BME280;61600;48.126;11.542;2023-05-17T12:05:48;96046.00;;;18.85;33.26
73383;BME280;61600;48.126;11.542;2023-05-17T12:08:16;96030.38;;;19.06;32.83
73383;BME280;61600;48.126;11.542;2023-05-17T12:10:48;96042.63;;;18.36;33.80
73383;BME280;61600;48.126;11.542;2023-05-17T12:13:15;96040.34;;;18.04;34.99
73383;BME280;61600;48.126;11.542;2023-05-17T12:16:02;96039.41;;;18.52;34.97
73383;BME280;61600;48.126;11.542;2023-05-17T12:18:37;96053.78;;;18.23;34.53
73383;BME280;61600;48.126;11.542;2023-05-17T12:21:04;96048.28;;;17.97;35.44
73383;BME280;61600;48.126;11.542;2023-05-17T12:23:35;96039.25;;;18.22;35.21
73383;BME280;61600;48.126;11.542;2023-05-17T12:26:09;96040.13;;;18.86;33.97
73383;BME280;61600;48.126;11.542;2023-05-17T12:28:38;96031.72;;;19.29;31.40
73383;BME280;61600;48.126;11.542;2023-05-17T12:31:13;96036.78;;;19.27;31.63
73383;BME280;61600;48.126;11.542;2023-05-17T12:33:41;96030.06;;;19.37;29.96
73383;BME280;61600;48.126;11.542;2023-05-17T12:36:10;96038.22;;;19.33;38.08
73383;BME280;61600;48.126;11.542;2023-05-17T12:38:38;96035.06;;;19.06;32.24
73383;BME280;61600;48.126;11.542;2023-05-17T12:41:06;96040.13;;;18.95;32.40
73383;BME280;61600;48.126;11.542;2023-05-17T12:43:34;96044.25;;;19.27;31.84
73383;BME280;61600;48.126;11.542;2023-05-17T12:46:29;96049.25;;;18.78;32.23
73383;BME280;61600;48.126;11.542;2023-05-17T12:49:00;96047.81;;;18.21;35.34
73383;BME280;61600;48.126;11.542;2023-05-17T12:51:39;96050.72;;;18.16;34.61
73383;BME280;61600;48.126;11.542;2023-05-17T12:54:05;96045.19;;;17.98;35.25
73383;BME280;61600;48.126;11.542;2023-05-17T12:56:31;96043.59;;;18.40;34.68
73383;BME280;61600;48.126;11.542;2023-05-17T13:01:45;96037.66;;;19.78;32.09
73383;BME280;61600;48.126;11.542;2023-05-17T13:04:12;96035.16;;;19.64;31.42
73383;BME280;61600;48.126;11.542;2023-05-17T13:09:21;96039.00;;;19.34;30.97
73383;BME280;61600;48.126;11.542;2023-05-17T13:11:52;96031.84;;;18.95;31.82
73383;BME280;61600;48.126;11.542;2023-05-17T13:14:43;96041.81;;;18.70;33.60
73383;BME280;61600;48.126;11.542;2023-05-17T13:17:11;96048.59;;;18.30;34.21
73383;BME280;61600;48.126;11.542;2023-05-17T13:19:38;96046.34;;;18.15;35.02
73383;BME280;61600;48.126;11.542;2023-05-17T13:22:05;96043.72;;;17.75;34.56
73383;BME280;61600;48.126;11.542;2023-05-17T13:24:36;96040.03;;;17.40;35.37
73383;BME280;61600;48.126;11.542;2023-05-17T13:27:03;96045.72;;;18.52;34.67
73383;BME280;61600;48.126;11.542;2023-05-17T13:29:29;96038.56;;;19.23;33.49
73383;BME280;61600;48.126;11.542;2023-05-17T13:31:55;96029.53;;;20.31;31.62